createdAt,value
2022-11-09T00:01:28.406Z,85.27
2022-11-09T00:06:30.895Z,85.82
2022-11-09T00:11:32.475Z,86.52
2022-11-09T00:16:33.907Z,86.03
2022-11-09T00:21:35.322Z,86.59
2022-11-09T00:26:36.726Z,86.54
2022-11-09T00:31:38.193Z,86.44
2022-11-09T00:36:39.672Z,86.67
2022-11-09T00:41:41.238Z,86.31
2022-11-09T00:46:42.643Z,86.13
2022-11-09T00:51:44.055Z,87.02
2022-11-09T00:56:45.475Z,86.45
2022-11-09T01:01:46.880Z,86.48
2022-11-09T01:06:48.364Z,86.03
2022-11-09T01:11:49.891Z,86.50
2022-11-09T01:16:51.756Z,86.77
2022-11-09T01:21:53.240Z,87.32
2022-11-09T01:26:55.015Z,87.37
2022-11-09T01:31:56.498Z,86.84
2022-11-09T01:36:57.942Z,87.02
2022-11-09T01:41:59.353Z,87.29
2022-11-09T01:47:06.355Z,86.83
2022-11-09T01:52:31.527Z,86.93
2022-11-09T01:57:41.459Z,87.11
2022-11-09T02:03:08.595Z,86.58
2022-11-09T02:08:12.763Z,86.73
2022-11-09T02:13:18.384Z,86.75
2022-11-09T02:18:21.402Z,86.53
2022-11-09T02:23:25.307Z,86.44
2022-11-09T02:28:28.007Z,86.73
2022-11-09T02:33:29.460Z,87.11
2022-11-09T02:38:31.935Z,86.72
2022-11-09T02:43:35.961Z,86.92
2022-11-09T02:48:37.359Z,86.27
2022-11-09T02:53:38.756Z,86.38
2022-11-09T02:58:40.222Z,86.27
2022-11-09T03:03:41.807Z,86.37
2022-11-09T03:08:43.224Z,86.04
2022-11-09T03:13:44.624Z,86.00
2022-11-09T03:18:46.157Z,86.22
2022-11-09T03:23:48.425Z,85.82
2022-11-09T03:28:49.968Z,86.15
2022-11-09T03:33:51.366Z,86.23
2022-11-09T03:38:52.795Z,86.30
2022-11-09T03:43:54.296Z,86.58
2022-11-09T03:48:55.720Z,86.74
2022-11-09T03:53:57.129Z,86.48
2022-11-09T03:58:58.562Z,86.73
2022-11-09T04:04:00.033Z,86.75
2022-11-09T04:09:01.563Z,86.81
2022-11-09T04:14:02.966Z,86.97
2022-11-09T04:19:04.436Z,87.23
2022-11-09T04:24:06.011Z,87.18
2022-11-09T04:29:07.659Z,86.65
2022-11-09T04:34:09.090Z,86.83
2022-11-09T04:39:11.278Z,87.04
2022-11-09T04:44:12.718Z,86.73
2022-11-09T04:49:14.165Z,86.96
2022-11-09T04:54:15.629Z,86.82
2022-11-09T04:59:17.257Z,86.35
2022-11-09T05:04:18.817Z,87.10
2022-11-09T05:09:20.287Z,87.70
2022-11-09T05:14:21.752Z,87.35
2022-11-09T05:19:23.182Z,87.74
2022-11-09T05:24:24.593Z,88.16
2022-11-09T05:29:26.029Z,87.84
2022-11-09T05:34:27.467Z,87.88
2022-11-09T05:39:29.127Z,87.67
2022-11-09T05:44:30.783Z,87.85
2022-11-09T05:49:32.190Z,87.97
2022-11-09T05:54:33.610Z,88.69
2022-11-09T05:59:35.054Z,88.95
2022-11-09T06:04:36.456Z,88.78
2022-11-09T06:09:37.955Z,88.35
2022-11-09T06:14:39.475Z,87.95
2022-11-09T06:19:40.893Z,88.28
2022-11-09T06:24:42.449Z,88.22
2022-11-09T06:29:43.856Z,87.82
2022-11-09T06:34:48.245Z,87.91
2022-11-09T06:39:51.654Z,88.28
2022-11-09T06:44:53.127Z,87.76
2022-11-09T06:49:54.698Z,87.47
2022-11-09T06:54:56.112Z,87.58
2022-11-09T07:00:00.160Z,87.89
2022-11-09T07:05:01.577Z,87.75
2022-11-09T07:10:03.256Z,88.13
2022-11-09T07:15:05.931Z,88.59
2022-11-09T07:20:09.828Z,88.52
2022-11-09T07:25:12.613Z,88.71
2022-11-09T07:30:14.949Z,88.70
2022-11-09T07:35:16.494Z,88.94
2022-11-09T07:40:18.076Z,88.51
2022-11-09T07:45:19.498Z,88.49
2022-11-09T07:50:20.894Z,87.26
2022-11-09T07:55:22.930Z,86.50
2022-11-09T08:00:25.975Z,85.76
2022-11-09T08:05:27.445Z,85.25
2022-11-09T08:10:30.248Z,84.91
2022-11-09T08:15:32.152Z,84.85
2022-11-09T08:20:34.643Z,84.87
2022-11-09T08:25:36.393Z,84.75
2022-11-09T08:30:37.882Z,84.46
2022-11-09T08:35:39.605Z,83.81
2022-11-09T08:40:41.055Z,82.96
2022-11-09T08:45:42.471Z,82.49
2022-11-09T08:50:43.922Z,82.47
2022-11-09T08:55:49.301Z,82.18
2022-11-09T09:00:51.216Z,81.59
2022-11-09T09:05:52.760Z,79.81
2022-11-09T09:10:54.182Z,78.95
2022-11-09T09:15:55.601Z,77.84
2022-11-09T09:20:57.009Z,79.49
2022-11-09T09:25:58.843Z,79.20
2022-11-09T09:31:01.662Z,78.69
2022-11-09T09:36:03.296Z,79.35
2022-11-09T09:41:06.765Z,78.16
2022-11-09T09:46:22.557Z,78.54
2022-11-09T09:51:37.756Z,78.09
2022-11-09T09:56:42.125Z,78.33
2022-11-09T10:01:44.715Z,78.20
2022-11-09T10:06:59.216Z,78.44
2022-11-09T10:12:12.984Z,78.26
2022-11-09T10:17:29.474Z,77.96
2022-11-09T10:22:54.746Z,76.51
2022-11-09T10:28:12.797Z,76.93
2022-11-09T10:33:20.812Z,74.73
2022-11-09T10:38:28.132Z,75.15
2022-11-09T10:43:29.545Z,73.66
2022-11-09T10:48:36.518Z,69.73
2022-11-09T10:53:38.104Z,72.01
2022-11-09T10:59:00.894Z,71.01
2022-11-09T11:04:21.249Z,71.49
2022-11-09T11:09:23.387Z,69.73
2022-11-09T11:14:41.555Z,69.96
2022-11-09T11:19:43.020Z,67.54
2022-11-09T11:24:57.913Z,68.21
2022-11-09T11:30:10.535Z,69.44
2022-11-09T11:35:18.460Z,69.88
2022-11-09T11:40:27.835Z,69.14
2022-11-09T11:45:41.852Z,68.60
2022-11-09T11:51:14.702Z,70.86
2022-11-09T11:56:24.986Z,70.05
2022-11-09T12:01:56.643Z,70.98
2022-11-09T12:07:20.975Z,69.51
2022-11-09T12:12:25.249Z,69.15
2022-11-09T12:17:52.260Z,64.74
2022-11-09T12:23:04.442Z,65.86
2022-11-09T12:28:41.104Z,64.85
2022-11-09T12:33:51.363Z,61.46
2022-11-09T12:39:00.612Z,64.79
2022-11-09T12:44:27.605Z,65.03
2022-11-09T12:49:36.840Z,63.96
2022-11-09T12:54:44.263Z,64.32
2022-11-09T12:59:50.418Z,64.65
2022-11-09T13:05:00.747Z,64.53
2022-11-09T13:10:02.848Z,65.08
2022-11-09T13:15:26.934Z,66.24
2022-11-09T13:25:59.094Z,66.62
2022-11-09T13:31:00.557Z,67.00
2022-11-09T13:36:07.912Z,64.07
2022-11-09T13:41:31.901Z,65.23
2022-11-09T13:46:39.062Z,63.42
2022-11-09T13:51:48.000Z,64.26
2022-11-09T13:56:50.554Z,64.60
2022-11-09T14:01:57.149Z,64.96
2022-11-09T14:07:10.871Z,65.06
2022-11-09T14:12:32.013Z,65.96
2022-11-09T14:17:57.340Z,66.48
2022-11-09T14:22:58.823Z,66.93
2022-11-09T14:28:00.351Z,67.69
2022-11-09T14:33:01.771Z,67.58
2022-11-09T14:38:17.383Z,68.27
2022-11-09T14:43:35.972Z,68.45
2022-11-09T14:48:39.796Z,69.06
2022-11-09T14:53:44.979Z,69.42
2022-11-09T14:58:47.387Z,70.38
2022-11-09T15:04:07.392Z,71.50
2022-11-09T15:09:14.549Z,71.64
2022-11-09T15:14:23.615Z,73.07
2022-11-09T15:19:29.810Z,73.79
2022-11-09T15:24:47.167Z,74.15
2022-11-09T15:29:48.637Z,75.08
2022-11-09T15:34:55.040Z,77.09
2022-11-09T15:39:58.266Z,76.27
2022-11-09T15:45:00.356Z,76.15
2022-11-09T15:50:15.099Z,76.32
2022-11-09T15:55:22.206Z,78.51
2022-11-09T16:00:23.881Z,77.95
2022-11-09T16:05:27.728Z,78.81
2022-11-09T16:10:30.720Z,77.77
2022-11-09T16:15:33.493Z,77.69
2022-11-09T16:20:34.999Z,77.70
2022-11-09T16:25:36.593Z,77.37
2022-11-09T16:30:41.543Z,78.07
2022-11-09T16:35:45.544Z,77.97
2022-11-09T16:40:46.991Z,78.00
2022-11-09T16:45:50.136Z,79.23
2022-11-09T16:50:53.654Z,78.42
2022-11-09T16:55:55.204Z,78.70
2022-11-09T17:01:10.606Z,78.68
2022-11-09T17:06:13.737Z,78.79
2022-11-09T17:11:15.779Z,78.59
2022-11-09T17:16:20.318Z,78.89
2022-11-09T17:21:24.170Z,78.46
2022-11-09T17:26:26.342Z,78.58
2022-11-09T17:31:27.856Z,78.67
2022-11-09T17:36:49.187Z,79.02
2022-11-09T17:41:50.864Z,79.15
2022-11-09T17:46:52.423Z,79.32
2022-11-09T17:51:54.212Z,79.24
2022-11-09T17:56:55.624Z,79.30
2022-11-09T18:01:57.119Z,79.49
2022-11-09T18:06:58.705Z,79.51
2022-11-09T18:12:00.136Z,79.45
2022-11-09T18:17:01.677Z,79.39
2022-11-09T18:22:04.863Z,79.88
2022-11-09T18:27:07.971Z,79.95
2022-11-09T18:32:09.373Z,80.42
2022-11-09T18:37:10.768Z,80.54
2022-11-09T18:42:12.333Z,80.28
2022-11-09T18:47:15.089Z,80.75
2022-11-09T18:52:16.710Z,80.44
2022-11-09T18:57:20.030Z,80.90
2022-11-09T19:02:21.697Z,81.01
2022-11-09T19:07:23.090Z,80.86
2022-11-09T19:12:25.068Z,80.99
2022-11-09T19:17:26.527Z,80.99
2022-11-09T19:22:29.122Z,81.34
2022-11-09T19:27:30.530Z,81.34
2022-11-09T19:32:31.993Z,81.76
2022-11-09T19:37:33.391Z,81.62
2022-11-09T19:42:34.816Z,81.85
2022-11-09T19:47:36.260Z,82.04
2022-11-09T19:52:38.806Z,81.88
2022-11-09T19:57:40.212Z,82.22
2022-11-09T20:02:41.642Z,82.19
2022-11-09T20:07:43.528Z,82.47
2022-11-09T20:12:50.670Z,82.56
2022-11-09T20:17:52.070Z,82.79
2022-11-09T20:22:53.517Z,82.98
2022-11-09T20:27:55.246Z,83.21
2022-11-09T20:32:56.789Z,83.07
2022-11-09T20:37:58.260Z,82.91
2022-11-09T20:42:59.692Z,82.86
2022-11-09T20:48:14.840Z,82.63
2022-11-09T20:53:22.565Z,82.96
2022-11-09T20:58:25.854Z,83.63
2022-11-09T21:03:27.804Z,83.66
2022-11-09T21:08:29.448Z,83.18
2022-11-09T21:13:31.199Z,83.12
2022-11-09T21:18:32.989Z,83.11
2022-11-09T21:23:53.307Z,82.34
2022-11-09T21:29:13.364Z,82.46
2022-11-09T21:34:14.955Z,81.81
2022-11-09T21:39:16.682Z,81.94
2022-11-09T21:44:18.521Z,81.71
2022-11-09T21:49:19.960Z,81.19
2022-11-09T21:54:22.348Z,81.04
2022-11-09T21:59:24.308Z,81.22
2022-11-09T22:04:25.734Z,81.22
2022-11-09T22:09:32.420Z,80.78
2022-11-09T22:15:00.145Z,80.62
2022-11-09T22:20:20.241Z,80.63
2022-11-09T22:25:21.643Z,80.91
2022-11-09T22:30:23.056Z,80.63
2022-11-09T22:35:24.482Z,81.02
2022-11-09T22:40:25.934Z,80.83
2022-11-09T22:45:27.363Z,80.68
2022-11-09T22:50:28.829Z,80.46
2022-11-09T22:55:30.548Z,80.16
2022-11-09T23:00:31.983Z,80.10
2022-11-09T23:05:33.423Z,79.91
2022-11-09T23:10:35.120Z,79.92
2022-11-09T23:15:36.535Z,80.45
2022-11-09T23:20:38.538Z,80.97
2022-11-09T23:25:54.895Z,82.33
2022-11-09T23:31:04.792Z,81.91
2022-11-09T23:36:07.464Z,82.59
2022-11-09T23:41:11.491Z,83.34
2022-11-09T23:46:14.675Z,83.96
2022-11-09T23:51:18.457Z,85.26
2022-11-09T23:56:21.156Z,85.48
